Time;durP1;ratioP1;P1;durP2;ratioP2;P2;SDS_P1;SDS_P2;PMS_P1;PMS_P2;Temp;Humidity;BMP_temperature;BMP_pressure;BME280_temperature;BME280_humidity;BME280_pressure;Samples;Min_cycle;Max_cycle;Signal;HPM_P1;HPM_P2
2022/07/06 00:01:19;;;;;;;3.40;0.70;;;;;;;;;;4999859;28;20233;-59
2022/07/06 00:03:47;;;;;;;0.90;0.70;;;;;;;;;;4999493;28;20235;-58
2022/07/06 00:06:23;;;;;;;3.77;0.90;;;;;;;;;;4999430;28;20202;-58
2022/07/06 00:08:51;;;;;;;4.57;1.00;;;;;;;;;;4999532;28;20819;-59
2022/07/06 00:11:19;;;;;;;0.80;0.80;;;;;;;;;;4999017;28;20228;-58
2022/07/06 00:13:47;;;;;;;4.60;2.00;;;;;;;;;;4999243;28;20238;-58
2022/07/06 00:16:15;;;;;;;1.57;0.87;;;;;;;;;;4999384;28;20246;-58
2022/07/06 00:18:43;;;;;;;0.93;0.93;;;;;;;;;;4999256;28;20220;-58
2022/07/06 00:21:11;;;;;;;0.80;0.80;;;;;;;;;;4999407;28;20233;-58
2022/07/06 00:23:40;;;;;;;2.47;0.80;;;;;;;;;;5015578;28;20256;-58
2022/07/06 00:26:08;;;;;;;3.60;1.10;;;;;;;;;;5004751;28;20210;-58
2022/07/06 00:28:36;;;;;;;2.63;0.97;;;;;;;;;;4999328;28;20244;-58
2022/07/06 00:31:05;;;;;;;1.83;0.90;;;;;;;;;;4999030;28;20251;-58
2022/07/06 00:33:33;;;;;;;0.60;0.60;;;;;;;;;;5000165;28;20709;-58
2022/07/06 00:36:01;;;;;;;1.57;0.93;;;;;;;;;;5002092;28;20205;-58
2022/07/06 00:38:29;;;;;;;0.70;0.70;;;;;;;;;;4999162;28;20260;-58
2022/07/06 00:40:59;;;;;;;3.00;0.80;;;;;;;;;;4998448;28;20263;-58
2022/07/06 00:43:27;;;;;;;1.03;0.93;;;;;;;;;;4998616;28;20269;-58
2022/07/06 00:45:55;;;;;;;2.83;0.70;;;;;;;;;;4998744;28;20651;-58
2022/07/06 00:48:23;;;;;;;2.40;0.93;;;;;;;;;;4998776;28;20217;-58
2022/07/06 00:50:51;;;;;;;1.47;0.60;;;;;;;;;;5005710;28;20210;-58
2022/07/06 00:53:19;;;;;;;1.63;1.00;;;;;;;;;;5018391;28;20266;-58
2022/07/06 00:55:47;;;;;;;2.80;0.90;;;;;;;;;;5017781;28;20238;-58
2022/07/06 00:58:17;;;;;;;0.60;0.60;;;;;;;;;;5003620;28;20726;-58
2022/07/06 01:00:45;;;;;;;1.23;1.07;;;;;;;;;;4998602;28;20227;-59
2022/07/06 01:03:13;;;;;;;1.57;0.70;;;;;;;;;;4998654;28;20263;-58
2022/07/06 01:05:42;;;;;;;3.63;1.00;;;;;;;;;;4998276;28;20661;-58
2022/07/06 01:08:10;;;;;;;1.43;0.97;;;;;;;;;;4998522;28;20210;-58
2022/07/06 01:10:38;;;;;;;1.80;0.80;;;;;;;;;;4997946;28;20249;-58
2022/07/06 01:13:06;;;;;;;1.77;0.77;;;;;;;;;;4998451;28;20230;-58
2022/07/06 01:15:36;;;;;;;0.70;0.60;;;;;;;;;;4998687;28;20204;-58
2022/07/06 01:18:04;;;;;;;1.73;0.80;;;;;;;;;;4998409;28;20212;-58
2022/07/06 01:20:34;;;;;;;2.50;0.70;;;;;;;;;;4998404;28;20282;-58
2022/07/06 01:23:02;;;;;;;2.33;0.70;;;;;;;;;;5004307;28;20593;-58
2022/07/06 01:25:30;;;;;;;2.90;0.80;;;;;;;;;;5015205;28;20623;-59
2022/07/06 01:27:58;;;;;;;0.77;0.77;;;;;;;;;;4998211;28;20575;-58
2022/07/06 01:30:26;;;;;;;0.60;0.60;;;;;;;;;;4997778;28;20209;-59
2022/07/06 01:32:54;;;;;;;5.27;0.97;;;;;;;;;;4996404;28;20741;-58
2022/07/06 01:35:23;;;;;;;1.10;0.80;;;;;;;;;;5022214;28;20210;-58
2022/07/06 01:37:52;;;;;;;4.00;0.83;;;;;;;;;;4998306;28;20205;-58
2022/07/06 01:40:20;;;;;;;2.20;0.70;;;;;;;;;;4997859;28;20699;-59
2022/07/06 01:42:48;;;;;;;18.43;2.27;;;;;;;;;;4998036;28;20241;-58
2022/07/06 01:45:16;;;;;;;3.00;0.80;;;;;;;;;;4997911;28;20703;-58
2022/07/06 01:47:44;;;;;;;2.37;0.80;;;;;;;;;;5001804;28;20579;-58
2022/07/06 01:50:12;;;;;;;4.80;0.80;;;;;;;;;;5002196;28;20247;-59
2022/07/06 01:52:40;;;;;;;3.73;1.90;;;;;;;;;;5002182;28;20248;-58
2022/07/06 01:55:10;;;;;;;5.17;0.80;;;;;;;;;;5004022;28;20236;-58
2022/07/06 01:57:38;;;;;;;0.70;0.70;;;;;;;;;;5008332;28;20209;-59
2022/07/06 02:00:07;;;;;;;1.80;0.73;;;;;;;;;;5001986;28;20214;-59
2022/07/06 02:02:35;;;;;;;1.50;1.10;;;;;;;;;;4999903;28;20258;-59
2022/07/06 02:05:03;;;;;;;0.87;0.83;;;;;;;;;;5000081;28;20278;-59
2022/07/06 02:07:31;;;;;;;1.23;0.80;;;;;;;;;;5000135;28;20282;-59
2022/07/06 02:09:59;;;;;;;0.73;0.73;;;;;;;;;;5000513;28;20242;-58
2022/07/06 02:12:29;;;;;;;0.77;0.77;;;;;;;;;;4999828;28;20215;-58
2022/07/06 02:14:56;;;;;;;0.67;0.67;;;;;;;;;;5000043;28;20267;-58
2022/07/06 02:17:25;;;;;;;1.33;0.87;;;;;;;;;;5001065;28;20789;-58
2022/07/06 02:19:53;;;;;;;2.20;0.90;;;;;;;;;;5001754;28;20210;-58
2022/07/06 02:22:21;;;;;;;3.63;0.73;;;;;;;;;;5001390;28;20270;-58
2022/07/06 02:24:48;;;;;;;1.03;0.73;;;;;;;;;;5017340;28;20231;-58
2022/07/06 02:27:16;;;;;;;1.17;0.73;;;;;;;;;;5001204;28;20243;-58
2022/07/06 02:29:46;;;;;;;1.57;1.00;;;;;;;;;;5001442;28;20663;-58
2022/07/06 02:32:14;;;;;;;0.57;0.57;;;;;;;;;;5014368;28;20242;-58
2022/07/06 02:34:42;;;;;;;0.63;0.50;;;;;;;;;;5002010;28;20251;-58
2022/07/06 02:37:10;;;;;;;0.70;0.63;;;;;;;;;;5001157;28;20239;-58
2022/07/06 02:39:38;;;;;;;3.40;1.30;;;;;;;;;;5001138;28;20237;-58
2022/07/06 02:42:06;;;;;;;2.10;0.70;;;;;;;;;;5000682;28;20259;-58
2022/07/06 02:44:34;;;;;;;2.33;0.83;;;;;;;;;;5001180;28;20259;-58
2022/07/06 02:47:04;;;;;;;1.90;0.80;;;;;;;;;;5001092;28;20244;-58
2022/07/06 02:49:32;;;;;;;3.83;0.80;;;;;;;;;;5001144;28;20272;-58
2022/07/06 02:52:00;;;;;;;1.30;0.83;;;;;;;;;;5000872;28;20644;-59
2022/07/06 02:54:28;;;;;;;12.30;0.93;;;;;;;;;;5000862;28;20240;-59
2022/07/06 02:56:56;;;;;;;4.47;0.90;;;;;;;;;;5000264;28;20208;-59
2022/07/06 02:59:24;;;;;;;1.43;0.57;;;;;;;;;;5000117;28;20239;-58
2022/07/06 03:01:52;;;;;;;0.93;0.80;;;;;;;;;;5000987;28;20228;-58
2022/07/06 03:04:21;;;;;;;1.17;0.93;;;;;;;;;;5000585;28;20349;-58
2022/07/06 03:06:49;;;;;;;0.87;0.77;;;;;;;;;;5007832;28;20208;-58
2022/07/06 03:09:17;;;;;;;1.63;0.70;;;;;;;;;;5020396;28;20247;-58
2022/07/06 03:11:45;;;;;;;1.17;0.70;;;;;;;;;;5019813;28;20211;-58
2022/07/06 03:14:13;;;;;;;3.50;0.90;;;;;;;;;;5019936;28;20660;-59
2022/07/06 03:16:41;;;;;;;0.83;0.70;;;;;;;;;;5020001;28;20236;-58
2022/07/06 03:19:16;;;;;;;2.30;0.80;;;;;;;;;;5019837;28;20577;-58
2022/07/06 03:21:46;;;;;;;4.23;1.03;;;;;;;;;;5020149;28;20263;-58
2022/07/06 03:24:14;;;;;;;1.70;0.60;;;;;;;;;;5025708;28;20275;-59
2022/07/06 03:26:42;;;;;;;0.90;0.90;;;;;;;;;;5018097;28;20203;-59
2022/07/06 03:29:10;;;;;;;0.93;0.83;;;;;;;;;;5025540;28;20220;-59
2022/07/06 03:31:38;;;;;;;12.37;1.10;;;;;;;;;;5019501;28;20240;-62
2022/07/06 03:34:06;;;;;;;0.83;0.83;;;;;;;;;;5015381;28;20283;-62
2022/07/06 03:36:34;;;;;;;3.47;1.07;;;;;;;;;;5014613;28;20204;-62
2022/07/06 03:39:07;;;;;;;0.93;0.80;;;;;;;;;;5012417;28;20202;-62
2022/07/06 03:41:35;;;;;;;4.93;0.80;;;;;;;;;;5028274;28;20262;-62
2022/07/06 03:44:04;;;;;;;1.67;0.73;;;;;;;;;;5015914;28;20220;-62
2022/07/06 03:46:32;;;;;;;1.73;0.80;;;;;;;;;;5014653;28;20208;-62
2022/07/06 03:49:00;;;;;;;4.10;1.00;;;;;;;;;;5015924;28;20204;-62
2022/07/06 03:51:28;;;;;;;3.37;1.17;;;;;;;;;;5012261;28;20230;-62
2022/07/06 03:53:56;;;;;;;1.43;1.00;;;;;;;;;;5006985;28;20263;-62
2022/07/06 03:56:28;;;;;;;3.33;0.80;;;;;;;;;;5003973;28;20280;-62
2022/07/06 03:58:56;;;;;;;1.07;1.00;;;;;;;;;;5008392;28;20264;-62
2022/07/06 04:01:25;;;;;;;1.10;0.90;;;;;;;;;;5017509;28;20212;-62
2022/07/06 04:03:53;;;;;;;2.80;1.00;;;;;;;;;;5016234;28;20228;-61
2022/07/06 04:06:21;;;;;;;0.60;0.60;;;;;;;;;;5012881;28;20212;-60
2022/07/06 04:08:49;;;;;;;2.10;0.70;;;;;;;;;;5016550;28;20209;-60
2022/07/06 04:11:17;;;;;;;2.10;0.90;;;;;;;;;;5014509;28;20203;-61
2022/07/06 04:13:46;;;;;;;1.67;1.10;;;;;;;;;;5015053;28;20243;-60
2022/07/06 04:16:14;;;;;;;3.60;1.00;;;;;;;;;;5013020;28;20239;-61
2022/07/06 04:18:42;;;;;;;4.53;0.90;;;;;;;;;;5014968;28;20231;-60
2022/07/06 04:21:10;;;;;;;2.90;0.80;;;;;;;;;;5016752;28;20235;-60
2022/07/06 04:23:38;;;;;;;1.10;1.00;;;;;;;;;;5016304;28;20327;-60
2022/07/06 04:26:06;;;;;;;3.13;1.00;;;;;;;;;;5010136;28;20201;-60
2022/07/06 04:28:34;;;;;;;1.57;1.20;;;;;;;;;;5009491;28;20228;-60
2022/07/06 04:31:04;;;;;;;0.80;0.80;;;;;;;;;;5012648;28;20655;-60
2022/07/06 04:33:33;;;;;;;1.23;0.90;;;;;;;;;;5018006;28;20685;-61
2022/07/06 04:36:01;;;;;;;0.93;0.83;;;;;;;;;;5016317;28;20207;-60
2022/07/06 04:38:29;;;;;;;4.13;1.10;;;;;;;;;;5015712;28;20205;-60
2022/07/06 04:40:57;;;;;;;0.80;0.80;;;;;;;;;;5014671;28;20242;-60
2022/07/06 04:43:25;;;;;;;2.57;0.80;;;;;;;;;;5013949;28;20646;-61
2022/07/06 04:45:53;;;;;;;1.33;0.80;;;;;;;;;;5016161;28;20236;-60
2022/07/06 04:48:22;;;;;;;1.20;1.07;;;;;;;;;;5015621;28;20684;-60
2022/07/06 04:50:51;;;;;;;1.57;1.00;;;;;;;;;;5016047;28;20205;-60
2022/07/06 04:53:19;;;;;;;1.00;0.97;;;;;;;;;;5012919;28;20582;-60
2022/07/06 04:55:47;;;;;;;1.57;0.70;;;;;;;;;;5014722;28;20231;-60
2022/07/06 04:58:15;;;;;;;3.37;0.80;;;;;;;;;;5014262;28;20265;-60
2022/07/06 05:00:44;;;;;;;3.03;1.10;;;;;;;;;;5014604;28;20203;-60
2022/07/06 05:03:12;;;;;;;1.73;1.10;;;;;;;;;;5015196;28;20237;-60
2022/07/06 05:05:41;;;;;;;1.10;1.00;;;;;;;;;;5015411;28;20686;-60
2022/07/06 05:08:09;;;;;;;2.23;0.90;;;;;;;;;;5012513;28;20305;-60
2022/07/06 05:10:37;;;;;;;3.13;1.13;;;;;;;;;;5016783;28;20248;-60
2022/07/06 05:13:05;;;;;;;1.20;0.90;;;;;;;;;;5015249;28;20229;-60
2022/07/06 05:15:34;;;;;;;0.80;0.70;;;;;;;;;;5015295;28;20688;-60
2022/07/06 05:18:05;;;;;;;2.23;1.10;;;;;;;;;;5012490;28;20207;-60
2022/07/06 05:20:35;;;;;;;0.70;0.70;;;;;;;;;;5013752;28;20207;-60
2022/07/06 05:23:07;;;;;;;1.87;1.10;;;;;;;;;;5016506;28;20230;-60
2022/07/06 05:25:36;;;;;;;1.17;0.77;;;;;;;;;;5015394;28;20208;-60
2022/07/06 05:28:05;;;;;;;1.93;0.80;;;;;;;;;;5012583;28;20204;-60
2022/07/06 05:30:33;;;;;;;1.80;0.97;;;;;;;;;;5014317;28;20234;-60
2022/07/06 05:33:01;;;;;;;1.50;0.97;;;;;;;;;;5016186;28;20258;-60
2022/07/06 05:35:30;;;;;;;1.90;1.63;;;;;;;;;;5011273;28;20197;-60
2022/07/06 05:38:19;;;;;;;2.27;1.10;;;;;;;;;;5007251;28;20296;-60
2022/07/06 05:40:48;;;;;;;6.13;0.90;;;;;;;;;;5010704;28;20235;-60
2022/07/06 05:43:16;;;;;;;3.67;1.07;;;;;;;;;;5008548;28;20706;-60
2022/07/06 05:45:44;;;;;;;1.87;1.07;;;;;;;;;;5011111;28;20234;-61
2022/07/06 05:50:57;;;;;;;3.23;1.10;;;;;;;;;;5008289;28;20208;-61
2022/07/06 05:53:27;;;;;;;1.37;1.07;;;;;;;;;;5008929;28;20260;-60
2022/07/06 05:55:55;;;;;;;1.33;0.90;;;;;;;;;;5010951;28;20200;-61
2022/07/06 05:58:24;;;;;;;0.97;0.87;;;;;;;;;;5014762;28;20233;-60
2022/07/06 06:00:53;;;;;;;1.50;1.20;;;;;;;;;;5016996;28;20235;-61
2022/07/06 06:03:21;;;;;;;2.10;0.90;;;;;;;;;;5014406;28;20225;-60
2022/07/06 06:05:49;;;;;;;3.07;1.17;;;;;;;;;;5016314;28;20287;-61
2022/07/06 06:08:17;;;;;;;1.63;1.07;;;;;;;;;;4997484;28;20258;-60
2022/07/06 06:10:46;;;;;;;1.20;1.10;;;;;;;;;;4997753;28;20209;-60
2022/07/06 06:13:14;;;;;;;2.83;1.00;;;;;;;;;;4997681;28;20637;-60
2022/07/06 06:15:42;;;;;;;1.10;0.93;;;;;;;;;;4997560;28;20281;-60
2022/07/06 06:18:10;;;;;;;1.67;1.00;;;;;;;;;;4997851;28;20224;-60
2022/07/06 06:20:39;;;;;;;4.20;0.80;;;;;;;;;;4997681;28;20246;-59
2022/07/06 06:23:07;;;;;;;5.10;1.37;;;;;;;;;;5013935;28;20225;-61
2022/07/06 06:25:36;;;;;;;5.80;1.40;;;;;;;;;;5008701;28;20218;-60
2022/07/06 06:28:06;;;;;;;3.17;1.10;;;;;;;;;;5008960;28;20231;-59
2022/07/06 06:30:35;;;;;;;2.83;0.97;;;;;;;;;;5009353;28;20220;-61
2022/07/06 06:33:09;;;;;;;1.77;1.07;;;;;;;;;;4999719;28;20231;-60
2022/07/06 06:35:38;;;;;;;3.47;1.07;;;;;;;;;;5001529;28;20228;-60
2022/07/06 06:38:06;;;;;;;3.43;0.90;;;;;;;;;;5001353;28;20246;-61
2022/07/06 06:40:34;;;;;;;2.30;1.10;;;;;;;;;;5000988;28;20217;-61
2022/07/06 06:43:02;;;;;;;2.63;0.90;;;;;;;;;;5009649;28;20277;-59
2022/07/06 06:45:32;;;;;;;3.47;1.20;;;;;;;;;;5012182;28;20199;-58
2022/07/06 06:48:00;;;;;;;1.80;1.30;;;;;;;;;;5012830;28;20617;-60
2022/07/06 06:50:28;;;;;;;1.50;1.10;;;;;;;;;;5012516;28;20210;-60
2022/07/06 06:52:56;;;;;;;3.83;1.30;;;;;;;;;;5013247;28;20202;-60
2022/07/06 06:55:25;;;;;;;1.90;1.00;;;;;;;;;;5015159;28;20684;-60
2022/07/06 06:57:53;;;;;;;4.73;1.20;;;;;;;;;;5011964;28;20591;-60
2022/07/06 07:00:21;;;;;;;1.93;1.10;;;;;;;;;;5013973;28;20682;-60
2022/07/06 07:02:50;;;;;;;3.90;1.60;;;;;;;;;;5012656;28;20690;-60
2022/07/06 07:05:19;;;;;;;1.30;1.13;;;;;;;;;;5013048;28;20227;-60
2022/07/06 07:07:47;;;;;;;5.00;1.37;;;;;;;;;;5012967;28;20221;-60
2022/07/06 07:10:15;;;;;;;3.53;1.10;;;;;;;;;;5011970;28;20216;-60
2022/07/06 07:12:44;;;;;;;4.00;1.50;;;;;;;;;;5013825;28;20625;-60
2022/07/06 07:15:12;;;;;;;1.17;1.00;;;;;;;;;;5011995;28;20253;-60
2022/07/06 07:17:40;;;;;;;2.10;1.07;;;;;;;;;;5013431;28;20271;-60
2022/07/06 07:20:11;;;;;;;2.10;1.33;;;;;;;;;;5012576;28;20228;-60
2022/07/06 07:22:39;;;;;;;3.30;1.23;;;;;;;;;;5013805;28;20206;-60
2022/07/06 07:25:07;;;;;;;6.83;1.47;;;;;;;;;;5013364;28;20344;-60
2022/07/06 07:27:36;;;;;;;5.60;1.80;;;;;;;;;;5012946;28;20229;-60
2022/07/06 07:30:04;;;;;;;2.13;0.90;;;;;;;;;;5012397;28;20201;-60
2022/07/06 07:32:33;;;;;;;3.00;1.17;;;;;;;;;;5013520;28;20211;-60
2022/07/06 07:35:01;;;;;;;1.47;0.97;;;;;;;;;;5011372;28;20227;-60
2022/07/06 07:37:30;;;;;;;4.10;1.10;;;;;;;;;;5012445;28;20230;-60
2022/07/06 07:39:59;;;;;;;4.57;1.30;;;;;;;;;;5012506;28;20198;-60
2022/07/06 07:42:27;;;;;;;2.03;1.43;;;;;;;;;;5010876;28;20202;-60
2022/07/06 07:44:55;;;;;;;2.47;1.13;;;;;;;;;;5010373;28;20593;-60
2022/07/06 07:47:23;;;;;;;2.67;0.80;;;;;;;;;;5012529;28;20206;-60
2022/07/06 07:49:51;;;;;;;7.37;1.30;;;;;;;;;;5010931;28;20795;-60
2022/07/06 07:52:19;;;;;;;2.60;0.97;;;;;;;;;;5011079;28;20205;-60
2022/07/06 07:54:48;;;;;;;1.63;1.40;;;;;;;;;;5010778;28;20223;-60
2022/07/06 07:57:37;;;;;;;3.60;2.03;;;;;;;;;;5009939;28;20633;-60
2022/07/06 08:00:05;;;;;;;2.37;1.07;;;;;;;;;;5012433;28;20209;-61
2022/07/06 08:02:33;;;;;;;2.30;1.07;;;;;;;;;;5010178;28;20261;-61
2022/07/06 08:05:02;;;;;;;1.67;1.17;;;;;;;;;;5011194;28;20341;-61
2022/07/06 08:07:30;;;;;;;1.27;1.10;;;;;;;;;;5018904;28;20218;-61
2022/07/06 08:10:00;;;;;;;3.07;1.27;;;;;;;;;;5012840;28;20208;-61
2022/07/06 08:12:29;;;;;;;1.57;1.27;;;;;;;;;;4999175;28;20217;-61
2022/07/06 08:14:58;;;;;;;1.73;0.93;;;;;;;;;;4999466;28;20254;-61
2022/07/06 08:17:27;;;;;;;1.67;1.17;;;;;;;;;;4999152;28;20208;-61
2022/07/06 08:19:55;;;;;;;1.97;1.23;;;;;;;;;;4999243;28;20239;-61
2022/07/06 08:22:23;;;;;;;2.23;0.90;;;;;;;;;;5014550;28;20210;-61
2022/07/06 08:24:52;;;;;;;1.40;1.30;;;;;;;;;;5018102;28;20286;-61
2022/07/06 08:27:21;;;;;;;2.33;1.20;;;;;;;;;;4998900;28;20220;-61
2022/07/06 08:29:50;;;;;;;4.17;1.20;;;;;;;;;;4999307;28;20279;-61
2022/07/06 08:32:19;;;;;;;5.20;1.40;;;;;;;;;;5012491;28;20287;-61
2022/07/06 08:35:08;;;;;;;1.67;1.40;;;;;;;;;;5013868;28;20293;-61
2022/07/06 08:37:36;;;;;;;3.50;1.30;;;;;;;;;;5001179;28;20219;-61
2022/07/06 08:40:05;;;;;;;2.50;1.20;;;;;;;;;;5018475;28;20227;-61
2022/07/06 08:42:36;;;;;;;2.47;1.10;;;;;;;;;;5018431;28;20740;-61
2022/07/06 08:45:05;;;;;;;1.30;1.10;;;;;;;;;;5018437;28;20286;-61
2022/07/06 08:47:33;;;;;;;2.93;1.20;;;;;;;;;;5018489;28;20430;-61
2022/07/06 08:50:02;;;;;;;2.10;1.00;;;;;;;;;;5018539;28;20216;-61
2022/07/06 08:52:31;;;;;;;1.40;1.30;;;;;;;;;;5018489;28;20214;-62
2022/07/06 08:55:00;;;;;;;2.40;1.03;;;;;;;;;;5017600;28;20229;-62
2022/07/06 08:57:29;;;;;;;2.73;1.00;;;;;;;;;;5017419;28;20299;-61
2022/07/06 08:59:59;;;;;;;3.13;1.10;;;;;;;;;;4999371;28;20855;-61
2022/07/06 09:02:28;;;;;;;3.50;1.20;;;;;;;;;;4998504;28;20743;-61
2022/07/06 09:04:57;;;;;;;1.40;0.97;;;;;;;;;;4998704;28;20357;-61
2022/07/06 09:07:27;;;;;;;1.17;1.07;;;;;;;;;;4998315;28;20209;-61
2022/07/06 09:10:18;;;;;;;3.27;1.40;;;;;;;;;;5005757;28;20214;-61
2022/07/06 09:12:46;;;;;;;2.57;1.20;;;;;;;;;;5018211;28;20200;-61
2022/07/06 09:15:16;;;;;;;2.77;1.13;;;;;;;;;;5018151;28;20210;-61
2022/07/06 09:17:45;;;;;;;1.90;1.23;;;;;;;;;;5017760;28;20209;-61
2022/07/06 09:20:14;;;;;;;1.10;1.00;;;;;;;;;;5017968;28;20293;-61
2022/07/06 09:22:42;;;;;;;1.60;1.13;;;;;;;;;;5018365;28;20211;-60
2022/07/06 09:25:11;;;;;;;1.73;1.20;;;;;;;;;;5016088;28;20220;-61
2022/07/06 09:27:40;;;;;;;2.57;1.20;;;;;;;;;;5009349;28;20202;-61
2022/07/06 09:30:09;;;;;;;2.10;1.30;;;;;;;;;;5011776;28;20237;-61
2022/07/06 09:32:42;;;;;;;1.40;1.17;;;;;;;;;;5012059;28;20203;-61
2022/07/06 09:35:20;;;;;;;1.93;1.23;;;;;;;;;;4999196;28;20202;-61
2022/07/06 09:38:00;;;;;;;1.10;0.90;;;;;;;;;;5006383;28;20244;-60
2022/07/06 09:40:28;;;;;;;2.97;1.23;;;;;;;;;;5013932;28;20279;-60
2022/07/06 09:43:08;;;;;;;6.10;1.60;;;;;;;;;;5008898;28;20721;-60
2022/07/06 09:45:36;;;;;;;3.53;1.63;;;;;;;;;;5006540;28;20225;-60
2022/07/06 09:48:11;;;;;;;1.90;1.30;;;;;;;;;;5008563;28;20214;-61
2022/07/06 09:50:56;;;;;;;1.23;1.10;;;;;;;;;;5008975;28;20213;-61
2022/07/06 09:53:26;;;;;;;5.70;1.60;;;;;;;;;;5009375;28;20232;-60
2022/07/06 09:55:57;;;;;;;1.47;1.23;;;;;;;;;;5008580;28;20209;-60
2022/07/06 09:58:27;;;;;;;1.30;1.20;;;;;;;;;;5011350;28;20779;-60
2022/07/06 10:01:26;;;;;;;1.60;1.30;;;;;;;;;;5010916;28;20229;-60
2022/07/06 10:03:55;;;;;;;2.37;1.40;;;;;;;;;;5007961;28;20215;-59
2022/07/06 10:06:24;;;;;;;2.10;1.00;;;;;;;;;;5008507;28;20227;-59
2022/07/06 10:08:53;;;;;;;2.83;1.23;;;;;;;;;;5016847;28;20214;-61
2022/07/06 10:11:21;;;;;;;2.43;1.40;;;;;;;;;;5000787;28;20204;-61
2022/07/06 10:13:49;;;;;;;2.57;1.43;;;;;;;;;;4999980;28;20231;-61
2022/07/06 10:16:17;;;;;;;2.63;1.30;;;;;;;;;;5007203;28;20203;-61
2022/07/06 10:18:45;;;;;;;2.83;1.23;;;;;;;;;;5009809;28;20225;-60
2022/07/06 10:21:16;;;;;;;1.87;1.10;;;;;;;;;;5010856;28;20228;-60
2022/07/06 10:23:44;;;;;;;2.80;1.27;;;;;;;;;;5010662;28;20221;-60
2022/07/06 10:26:13;;;;;;;5.37;1.80;;;;;;;;;;5013012;28;20212;-60
2022/07/06 10:28:42;;;;;;;1.20;1.10;;;;;;;;;;5015569;28;20226;-60
2022/07/06 10:31:10;;;;;;;3.10;1.30;;;;;;;;;;5018039;28;20262;-60
2022/07/06 10:33:40;;;;;;;1.23;1.13;;;;;;;;;;5019693;28;20233;-60
2022/07/06 10:36:08;;;;;;;2.57;1.37;;;;;;;;;;5018452;28;20211;-59
2022/07/06 10:38:39;;;;;;;2.60;1.30;;;;;;;;;;5016543;28;20258;-59
2022/07/06 10:41:07;;;;;;;5.10;1.73;;;;;;;;;;5015199;28;20549;-59
2022/07/06 10:43:35;;;;;;;4.20;1.50;;;;;;;;;;5011993;28;20284;-59
2022/07/06 10:46:07;;;;;;;2.83;1.10;;;;;;;;;;5012147;28;20268;-59
2022/07/06 10:48:35;;;;;;;2.50;1.27;;;;;;;;;;5012169;28;20216;-59
2022/07/06 10:51:04;;;;;;;1.07;1.00;;;;;;;;;;5011896;28;20208;-59
2022/07/06 10:53:34;;;;;;;1.40;1.30;;;;;;;;;;5001004;28;20239;-61
2022/07/06 10:56:04;;;;;;;3.37;1.30;;;;;;;;;;5000715;28;20255;-59
2022/07/06 10:58:36;;;;;;;3.50;1.40;;;;;;;;;;5000831;28;20260;-60
2022/07/06 11:01:05;;;;;;;3.70;1.43;;;;;;;;;;5000783;28;20217;-59
2022/07/06 11:03:38;;;;;;;1.50;1.33;;;;;;;;;;5000817;28;20282;-59
2022/07/06 11:06:08;;;;;;;4.60;1.50;;;;;;;;;;5008471;28;20223;-59
2022/07/06 11:08:45;;;;;;;2.73;1.37;;;;;;;;;;5009991;28;20235;-59
2022/07/06 11:11:16;;;;;;;3.43;1.40;;;;;;;;;;5016393;28;20204;-59
2022/07/06 11:13:51;;;;;;;1.40;1.30;;;;;;;;;;5017189;28;20587;-59
2022/07/06 11:16:20;;;;;;;3.20;1.20;;;;;;;;;;5014794;28;20197;-59
2022/07/06 11:18:49;;;;;;;2.93;1.90;;;;;;;;;;5017621;28;20347;-59
2022/07/06 11:21:17;;;;;;;2.40;1.40;;;;;;;;;;5015063;28;20218;-60
2022/07/06 11:23:47;;;;;;;2.60;1.50;;;;;;;;;;5018157;28;20220;-61
2022/07/06 11:26:17;;;;;;;1.93;1.40;;;;;;;;;;5012641;28;20228;-60
2022/07/06 11:28:46;;;;;;;1.97;1.30;;;;;;;;;;5010663;28;20236;-60
2022/07/06 11:31:14;;;;;;;2.53;1.30;;;;;;;;;;5012503;28;20208;-60
2022/07/06 11:33:45;;;;;;;2.63;1.40;;;;;;;;;;5015148;28;20262;-60
2022/07/06 11:36:17;;;;;;;1.70;1.20;;;;;;;;;;5000285;28;20203;-59
2022/07/06 11:38:46;;;;;;;2.00;0.97;;;;;;;;;;4999493;28;20259;-59
2022/07/06 11:41:14;;;;;;;1.07;1.00;;;;;;;;;;4997801;28;20220;-59
2022/07/06 11:43:45;;;;;;;1.47;1.20;;;;;;;;;;4998153;28;20279;-60
2022/07/06 11:46:26;;;;;;;3.90;1.33;;;;;;;;;;4998195;28;20231;-59
2022/07/06 11:48:55;;;;;;;3.73;1.40;;;;;;;;;;4998016;28;20751;-59
2022/07/06 11:51:23;;;;;;;2.10;1.30;;;;;;;;;;4997989;28;20208;-59
2022/07/06 11:53:52;;;;;;;1.93;1.30;;;;;;;;;;5005054;28;20255;-59
2022/07/06 11:56:25;;;;;;;1.70;1.13;;;;;;;;;;5018821;28;20215;-59
2022/07/06 11:58:56;;;;;;;2.03;1.37;;;;;;;;;;5019332;28;20278;-59
2022/07/06 12:01:24;;;;;;;1.73;1.10;;;;;;;;;;5019428;28;20263;-59
2022/07/06 12:03:52;;;;;;;2.40;1.37;;;;;;;;;;5019584;28;20224;-59
2022/07/06 12:06:22;;;;;;;1.73;1.40;;;;;;;;;;5019073;28;20584;-59
2022/07/06 12:08:50;;;;;;;7.60;1.37;;;;;;;;;;5019184;28;20218;-59
2022/07/06 12:11:22;;;;;;;6.53;1.57;;;;;;;;;;5018694;28;20682;-59
2022/07/06 12:13:51;;;;;;;1.93;1.20;;;;;;;;;;5018955;28;20278;-59
2022/07/06 12:16:22;;;;;;;1.30;1.20;;;;;;;;;;5018860;28;20251;-59
2022/07/06 12:18:51;;;;;;;2.23;1.20;;;;;;;;;;5011979;28;20243;-59
2022/07/06 12:21:21;;;;;;;1.27;1.17;;;;;;;;;;5011335;28;20227;-59
2022/07/06 12:23:51;;;;;;;1.77;1.17;;;;;;;;;;5011672;28;20221;-59
2022/07/06 12:26:19;;;;;;;5.07;0.90;;;;;;;;;;5010248;28;20221;-59
2022/07/06 12:28:48;;;;;;;3.03;1.20;;;;;;;;;;5010389;28;20290;-59
2022/07/06 12:31:30;;;;;;;1.17;1.07;;;;;;;;;;5010305;28;20201;-60
2022/07/06 12:34:00;;;;;;;1.40;1.27;;;;;;;;;;5009686;28;20222;-59
2022/07/06 12:36:28;;;;;;;2.70;1.10;;;;;;;;;;5016106;28;20223;-59
2022/07/06 12:38:56;;;;;;;4.13;1.50;;;;;;;;;;5013365;28;20260;-59
2022/07/06 12:41:26;;;;;;;1.07;0.93;;;;;;;;;;5013462;28;20252;-59
2022/07/06 12:44:01;;;;;;;1.30;1.00;;;;;;;;;;5012420;28;20232;-59
2022/07/06 12:46:30;;;;;;;3.33;1.13;;;;;;;;;;5015629;28;20227;-59
2022/07/06 12:49:02;;;;;;;1.47;1.30;;;;;;;;;;5016935;28;20198;-60
2022/07/06 12:51:48;;;;;;;1.20;1.10;;;;;;;;;;5014896;28;20204;-60
2022/07/06 12:54:17;;;;;;;3.63;1.30;;;;;;;;;;5008196;28;20648;-58
2022/07/06 12:57:01;;;;;;;1.07;0.97;;;;;;;;;;5009328;28;20198;-58
2022/07/06 12:59:30;;;;;;;5.30;0.90;;;;;;;;;;5008848;28;20229;-60
2022/07/06 13:01:58;;;;;;;2.30;1.13;;;;;;;;;;5012029;28;20197;-59
2022/07/06 13:04:28;;;;;;;1.67;1.30;;;;;;;;;;4998343;28;20694;-59
2022/07/06 13:06:56;;;;;;;4.37;0.97;;;;;;;;;;4998499;28;20773;-59
2022/07/06 13:09:30;;;;;;;4.07;1.20;;;;;;;;;;5005071;28;20922;-59
2022/07/06 13:11:58;;;;;;;1.50;0.93;;;;;;;;;;5017874;28;20221;-60
2022/07/06 13:14:26;;;;;;;1.30;1.20;;;;;;;;;;5002129;28;20230;-60
2022/07/06 13:16:55;;;;;;;1.90;0.83;;;;;;;;;;4998397;28;20212;-61
2022/07/06 13:19:23;;;;;;;0.90;0.90;;;;;;;;;;4998075;28;20213;-61
2022/07/06 13:21:52;;;;;;;1.50;1.00;;;;;;;;;;4998309;28;20238;-61
2022/07/06 13:24:20;;;;;;;5.50;1.03;;;;;;;;;;5017696;28;20276;-61
2022/07/06 13:26:48;;;;;;;5.40;1.07;;;;;;;;;;4998231;28;20282;-59
2022/07/06 13:29:18;;;;;;;1.10;1.00;;;;;;;;;;4998361;28;20216;-60
2022/07/06 13:31:46;;;;;;;0.83;0.83;;;;;;;;;;5010115;28;20297;-60
2022/07/06 13:34:14;;;;;;;1.73;1.00;;;;;;;;;;4999354;28;20225;-60
2022/07/06 13:36:42;;;;;;;1.67;0.80;;;;;;;;;;4998420;28;20261;-60
2022/07/06 13:39:13;;;;;;;0.70;0.70;;;;;;;;;;4997756;28;20556;-60
2022/07/06 13:41:41;;;;;;;2.63;1.03;;;;;;;;;;4999403;28;20206;-61
2022/07/06 13:44:09;;;;;;;1.97;0.93;;;;;;;;;;5004767;28;20230;-60
2022/07/06 13:46:42;;;;;;;1.90;0.90;;;;;;;;;;5004671;28;20212;-60
2022/07/06 13:49:10;;;;;;;2.15;0.90;;;;;;;;;;5004454;28;20215;-60
2022/07/06 13:51:38;;;;;;;1.13;0.80;;;;;;;;;;5003695;28;20614;-60
2022/07/06 13:54:07;;;;;;;3.97;0.80;;;;;;;;;;5003282;28;20279;-60
2022/07/06 13:56:37;;;;;;;1.13;0.80;;;;;;;;;;5003580;28;20212;-60
2022/07/06 13:59:06;;;;;;;2.60;0.80;;;;;;;;;;5004374;28;20644;-60
2022/07/06 14:01:34;;;;;;;1.90;0.70;;;;;;;;;;5004603;28;20205;-60
2022/07/06 14:04:02;;;;;;;2.97;0.90;;;;;;;;;;5004539;28;20320;-60
2022/07/06 14:06:30;;;;;;;0.63;0.60;;;;;;;;;;5004525;28;20239;-60
2022/07/06 14:08:58;;;;;;;2.47;0.55;;;;;;;;;;5004581;28;20290;-60
2022/07/06 14:11:26;;;;;;;1.20;0.80;;;;;;;;;;5003913;28;20206;-60
2022/07/06 14:13:55;;;;;;;0.88;0.60;;;;;;;;;;5004418;28;20287;-60
2022/07/06 14:16:23;;;;;;;2.50;0.80;;;;;;;;;;5004489;28;20263;-60
2022/07/06 14:18:52;;;;;;;0.90;0.80;;;;;;;;;;5003869;28;20211;-60
2022/07/06 14:21:20;;;;;;;1.30;0.80;;;;;;;;;;5003376;28;20205;-60
2022/07/06 14:23:49;;;;;;;3.50;0.90;;;;;;;;;;5021271;28;20257;-60
2022/07/06 14:26:17;;;;;;;1.47;0.90;;;;;;;;;;5002319;28;20622;-60
2022/07/06 14:28:45;;;;;;;1.30;0.73;;;;;;;;;;5002512;28;20261;-60
2022/07/06 14:31:14;;;;;;;1.00;0.60;;;;;;;;;;5010222;28;20260;-60
2022/07/06 14:33:48;;;;;;;2.60;0.90;;;;;;;;;;5007720;28;20268;-60
2022/07/06 14:36:16;;;;;;;2.67;0.57;;;;;;;;;;5003074;28;20204;-60
2022/07/06 14:38:44;;;;;;;1.10;1.00;;;;;;;;;;5004216;28;20268;-60
2022/07/06 14:41:12;;;;;;;0.77;0.60;;;;;;;;;;5003994;28;20205;-60
2022/07/06 14:43:40;;;;;;;1.05;0.70;;;;;;;;;;5003887;28;20763;-60
2022/07/06 14:46:08;;;;;;;0.88;0.70;;;;;;;;;;5004302;28;20205;-60
2022/07/06 14:48:38;;;;;;;6.83;6.13;;;;;;;;;;5004007;28;20258;-60
2022/07/06 14:51:06;;;;;;;4.57;3.10;;;;;;;;;;5004270;28;20210;-60
2022/07/06 14:53:34;;;;;;;2.30;1.40;;;;;;;;;;5002432;28;20282;-60
2022/07/06 14:56:02;;;;;;;1.13;0.70;;;;;;;;;;5000696;28;20205;-60
2022/07/06 14:58:30;;;;;;;1.93;0.73;;;;;;;;;;5000427;28;20643;-60